Terminal Aerodrome Forecast
Issued by NWS North Platte, NE

Home | Current Version | Previous Version | Text Only | Print | Product List | Glossary On
Versions: 1 2 3 4 5 6 7 8 9 10 11 12 13 14 15 16 17 18 19 20 21 22 23
000
FTUS43 KLBF 281723
TAFLBF
TAF
KLBF 281723Z 2818/2918 14010KT P6SM SCT025 BKN040
      TEMPO 2818/2820 BKN025 BKN040
     FM282100 14008KT P6SM BKN050 BKN100
     FM290000 12006KT P6SM BKN050 BKN100 PROB30 2903/2906 5SM -TSRA
      OVC050CB
     FM290600 13005KT P6SM -SHRA VCTS BKN050 OVC100CB
     FM291500 16007KT P6SM BKN050 OVC100=

USA.gov is the U.S. government's official web portal to all federal, state and local government web resources and services.